createdAt,value
2023-02-11T00:01:22.634Z,1.80
2023-02-11T00:03:50.470Z,1.90
2023-02-11T00:06:17.981Z,0.60
2023-02-11T00:08:47.304Z,1.70
2023-02-11T00:11:17.023Z,2.60
2023-02-11T00:13:45.920Z,1.10
2023-02-11T00:16:16.281Z,1.00
2023-02-11T00:18:43.905Z,1.20
2023-02-11T00:21:20.535Z,1.60
2023-02-11T00:23:48.907Z,1.50
2023-02-11T00:26:22.975Z,1.20
2023-02-11T00:28:51.517Z,1.10
2023-02-11T00:31:20.463Z,1.80
2023-02-11T00:33:47.977Z,0.10
2023-02-11T00:36:17.996Z,1.50
2023-02-11T00:38:46.916Z,1.60
2023-02-11T00:41:15.048Z,2.60
2023-02-11T00:43:42.842Z,2.70
2023-02-11T00:46:11.808Z,2.80
2023-02-11T00:48:39.928Z,2.60
2023-02-11T00:51:08.041Z,3.10
2023-02-11T00:53:36.163Z,1.70
2023-02-11T00:56:04.163Z,2.60
2023-02-11T00:58:31.580Z,1.20
2023-02-11T01:00:59.094Z,2.70
2023-02-11T01:03:26.561Z,2.80
2023-02-11T01:05:54.089Z,1.30
2023-02-11T01:08:21.833Z,3.10
2023-02-11T01:10:57.513Z,3.00
2023-02-11T01:13:25.964Z,1.90
2023-02-11T01:15:54.052Z,3.00
2023-02-11T01:18:21.633Z,1.10
2023-02-11T01:20:48.962Z,2.80
2023-02-11T01:23:16.367Z,2.70
2023-02-11T01:25:43.679Z,1.70
2023-02-11T01:28:30.886Z,3.20
2023-02-11T01:30:58.513Z,1.90
2023-02-11T01:33:26.053Z,1.50
2023-02-11T01:35:53.710Z,2.70
2023-02-11T01:38:24.755Z,1.20
2023-02-11T01:41:02.139Z,2.40
2023-02-11T01:43:43.175Z,1.00
2023-02-11T01:46:37.086Z,0.80
2023-02-11T01:49:12.503Z,1.00
2023-02-11T01:51:46.994Z,1.10
2023-02-11T01:54:39.094Z,1.50
2023-02-11T01:57:23.316Z,2.00
2023-02-11T02:00:24.458Z,1.20
2023-02-11T02:03:00.738Z,1.00
2023-02-11T02:05:33.615Z,1.20
2023-02-11T02:08:17.762Z,0.70
2023-02-11T02:10:48.408Z,0.60
2023-02-11T02:13:16.232Z,0.80
2023-02-11T02:16:07.210Z,2.50
2023-02-11T02:19:07.591Z,1.30
2023-02-11T02:22:06.310Z,0.60
2023-02-11T02:25:04.444Z,0.70
2023-02-11T02:27:46.968Z,0.90
2023-02-11T02:30:39.360Z,0.90
2023-02-11T02:33:22.435Z,1.40
2023-02-11T02:36:09.498Z,1.00
2023-02-11T02:38:49.463Z,1.00
2023-02-11T02:41:19.792Z,1.60
2023-02-11T02:43:50.795Z,1.20
2023-02-11T02:46:23.330Z,1.40
2023-02-11T02:48:55.023Z,0.40
2023-02-11T02:51:50.350Z,2.90
2023-02-11T02:54:29.574Z,0.60
2023-02-11T02:57:09.924Z,0.60
2023-02-11T02:59:43.289Z,0.60
2023-02-11T03:02:22.362Z,2.50
2023-02-11T03:04:49.753Z,1.10
2023-02-11T03:07:35.686Z,0.20
2023-02-11T03:10:12.625Z,1.50
2023-02-11T03:12:42.332Z,0.30
2023-02-11T03:15:12.927Z,1.80
2023-02-11T03:17:45.090Z,2.40
2023-02-11T03:20:16.405Z,2.50
2023-02-11T03:22:50.862Z,0.60
2023-02-11T03:25:19.393Z,2.30
2023-02-11T03:28:09.381Z,1.90
2023-02-11T03:30:49.389Z,0.30
2023-02-11T03:33:41.045Z,0.40
2023-02-11T03:36:15.366Z,1.90
2023-02-11T03:38:50.580Z,2.00
2023-02-11T03:41:23.324Z,0.00
2023-02-11T03:43:57.230Z,1.60
2023-02-11T03:46:30.679Z,-0.20
2023-02-11T03:49:04.585Z,1.90
2023-02-11T03:51:33.201Z,0.60
2023-02-11T03:54:04.760Z,-0.30
2023-02-11T03:56:36.866Z,1.60
2023-02-11T03:59:04.552Z,3.00
2023-02-11T04:01:31.940Z,2.20
2023-02-11T04:03:59.303Z,0.00
2023-02-11T04:06:26.836Z,-0.10
2023-02-11T04:08:54.160Z,1.80
2023-02-11T04:11:21.513Z,0.20
2023-02-11T04:13:48.872Z,1.60
2023-02-11T04:16:16.545Z,-0.40
2023-02-11T04:18:43.866Z,-0.60
2023-02-11T04:21:11.431Z,1.00
2023-02-11T04:23:38.821Z,1.70
2023-02-11T04:26:07.035Z,0.40
2023-02-11T04:28:35.122Z,1.30
2023-02-11T04:31:02.663Z,0.40
2023-02-11T04:33:30.024Z,-0.10
2023-02-11T04:35:57.513Z,0.20
2023-02-11T04:38:24.916Z,-0.20
2023-02-11T04:40:52.302Z,2.60
2023-02-11T04:43:19.657Z,-0.40
2023-02-11T04:45:47.122Z,-0.20
2023-02-11T04:48:14.518Z,-0.30
2023-02-11T04:50:41.889Z,-0.40
2023-02-11T04:53:09.338Z,-0.60
2023-02-11T04:55:36.856Z,1.10
2023-02-11T04:58:04.352Z,3.40
2023-02-11T05:00:33.673Z,-0.70
2023-02-11T05:03:00.976Z,1.30
2023-02-11T05:05:28.451Z,0.70
2023-02-11T05:07:55.752Z,-0.60
2023-02-11T05:10:23.128Z,1.10
2023-02-11T05:12:50.427Z,-0.60
2023-02-11T05:15:17.917Z,-0.40
2023-02-11T05:17:45.465Z,-0.30
2023-02-11T05:20:12.787Z,-0.40
2023-02-11T05:22:40.184Z,-0.40
2023-02-11T05:25:07.852Z,-0.60
2023-02-11T05:27:35.418Z,0.30
2023-02-11T05:30:03.031Z,1.10
2023-02-11T05:32:30.510Z,-0.70
2023-02-11T05:34:57.924Z,-0.70
2023-02-11T05:37:25.404Z,-0.60
2023-02-11T05:39:52.893Z,-0.80
2023-02-11T05:42:20.377Z,-0.70
2023-02-11T05:44:50.315Z,-0.80
2023-02-11T05:47:17.976Z,0.30
2023-02-11T05:49:45.420Z,-0.10
2023-02-11T05:52:12.892Z,-0.70
2023-02-11T05:54:40.404Z,-0.60
2023-02-11T05:57:10.726Z,-0.60
2023-02-11T05:59:38.694Z,-0.80
2023-02-11T06:02:08.180Z,-0.50
2023-02-11T06:04:36.530Z,-0.40
2023-02-11T06:07:04.644Z,-0.90
2023-02-11T06:09:31.999Z,0.20
2023-02-11T06:11:59.468Z,-0.80
2023-02-11T06:14:26.845Z,-0.80
2023-02-11T06:16:54.407Z,-0.70
2023-02-11T06:19:21.884Z,0.00
2023-02-11T06:21:49.590Z,-0.70
2023-02-11T06:24:24.679Z,-0.90
2023-02-11T06:27:05.192Z,-0.70
2023-02-11T06:29:32.598Z,-0.50
2023-02-11T06:32:00.079Z,0.20
2023-02-11T06:34:28.199Z,-0.70
2023-02-11T06:36:55.646Z,-1.00
2023-02-11T06:39:23.002Z,0.70
2023-02-11T06:41:50.313Z,-1.30
2023-02-11T06:44:17.636Z,0.10
2023-02-11T06:46:45.013Z,-1.30
2023-02-11T06:49:12.575Z,-1.00
2023-02-11T06:51:40.360Z,-1.00
2023-02-11T06:54:08.456Z,-0.90
2023-02-11T06:56:37.047Z,-1.00
2023-02-11T06:59:04.428Z,-1.10
2023-02-11T07:01:32.265Z,-1.10
2023-02-11T07:03:59.659Z,-0.80
2023-02-11T07:06:28.200Z,-1.20
2023-02-11T07:08:56.163Z,-1.60
2023-02-11T07:11:26.225Z,-1.20
2023-02-11T07:13:55.802Z,-1.20
2023-02-11T07:16:23.711Z,-1.20
2023-02-11T07:18:51.149Z,-1.10
2023-02-11T07:21:21.402Z,-0.70
2023-02-11T07:23:49.310Z,-0.90
2023-02-11T07:26:19.807Z,-1.10
2023-02-11T07:28:47.426Z,-1.00
2023-02-11T07:31:17.580Z,-1.10
2023-02-11T07:33:45.983Z,-1.20
2023-02-11T07:36:15.452Z,-1.20
2023-02-11T07:38:43.407Z,-0.60
2023-02-11T07:41:14.288Z,-0.90
2023-02-11T07:43:42.767Z,-1.10
2023-02-11T07:46:14.292Z,-1.40
2023-02-11T07:48:41.821Z,-1.10
2023-02-11T07:51:37.537Z,-1.10
2023-02-11T07:54:05.192Z,-1.40
2023-02-11T07:56:33.593Z,-0.90
2023-02-11T07:59:03.795Z,-1.60
2023-02-11T08:01:31.663Z,-1.10
2023-02-11T08:04:00.382Z,-1.30
2023-02-11T08:06:30.568Z,-1.20
2023-02-11T08:08:58.976Z,1.30
2023-02-11T08:11:28.745Z,-0.90
2023-02-11T08:13:57.427Z,0.50
2023-02-11T08:16:27.375Z,2.50
2023-02-11T08:18:57.894Z,-0.80
2023-02-11T08:21:25.488Z,-1.00
2023-02-11T08:23:53.622Z,1.00
2023-02-11T08:26:23.939Z,-0.90
2023-02-11T08:28:53.055Z,1.30
2023-02-11T08:31:23.907Z,-1.40
2023-02-11T08:33:51.548Z,-0.60
2023-02-11T08:36:23.478Z,-0.50
2023-02-11T08:38:51.304Z,2.50
2023-02-11T08:41:18.752Z,-0.50
2023-02-11T08:43:46.600Z,2.40
2023-02-11T08:46:16.372Z,-0.50
2023-02-11T08:48:44.695Z,1.50
2023-02-11T08:51:19.316Z,-0.60
2023-02-11T08:53:47.223Z,-0.40
2023-02-11T08:56:15.873Z,-0.60
2023-02-11T08:58:44.269Z,-0.50
2023-02-11T09:01:14.688Z,-0.90
2023-02-11T09:03:42.325Z,-0.90
2023-02-11T09:06:11.288Z,1.40
2023-02-11T09:08:43.691Z,-0.90
2023-02-11T09:11:12.574Z,-0.20
2023-02-11T09:13:42.062Z,0.80
2023-02-11T09:16:15.908Z,1.60
2023-02-11T09:18:44.579Z,-0.60
2023-02-11T09:21:13.704Z,3.40
2023-02-11T09:23:43.742Z,1.60
2023-02-11T09:26:19.275Z,-0.40
2023-02-11T09:28:47.353Z,-0.10
2023-02-11T09:31:24.137Z,1.10
2023-02-11T09:33:54.980Z,0.40
2023-02-11T09:36:29.053Z,-0.50
2023-02-11T09:38:58.080Z,0.00
2023-02-11T09:42:06.912Z,2.50
2023-02-11T09:44:37.412Z,-0.10
2023-02-11T09:47:28.260Z,1.30
2023-02-11T09:50:04.828Z,2.90
2023-02-11T09:52:47.186Z,0.00
2023-02-11T09:55:25.737Z,1.40
2023-02-11T09:57:53.282Z,0.00
2023-02-11T10:00:53.208Z,2.00
2023-02-11T10:03:42.252Z,0.30
2023-02-11T10:06:13.013Z,-0.10
2023-02-11T10:09:01.931Z,-0.10
2023-02-11T10:12:07.774Z,0.00
2023-02-11T10:15:12.184Z,0.00
2023-02-11T10:17:42.526Z,0.30
2023-02-11T10:20:38.972Z,0.00
2023-02-11T10:23:16.780Z,0.10
2023-02-11T10:25:48.413Z,0.60
2023-02-11T10:28:19.334Z,2.20
2023-02-11T10:30:53.900Z,2.10
2023-02-11T10:33:48.805Z,1.20
2023-02-11T10:36:19.302Z,0.20
2023-02-11T10:38:47.209Z,-0.30
2023-02-11T10:41:20.440Z,-0.10
2023-02-11T10:43:48.146Z,0.90
2023-02-11T10:46:22.919Z,0.10
2023-02-11T10:48:53.564Z,-0.10
2023-02-11T10:51:29.218Z,1.90
2023-02-11T10:54:06.280Z,0.20
2023-02-11T10:56:39.524Z,2.40
2023-02-11T10:59:28.391Z,2.40
2023-02-11T11:02:25.021Z,0.40
2023-02-11T11:04:57.620Z,1.00
2023-02-11T11:07:33.238Z,0.60
2023-02-11T11:10:05.942Z,2.20
2023-02-11T11:12:42.387Z,0.50
2023-02-11T11:15:30.948Z,0.40
2023-02-11T11:18:22.093Z,0.80
2023-02-11T11:21:13.253Z,0.40
2023-02-11T11:23:49.780Z,2.40
2023-02-11T11:26:18.119Z,2.70
2023-02-11T11:28:51.322Z,0.50
2023-02-11T11:31:33.536Z,2.50
2023-02-11T11:34:07.170Z,0.30
2023-02-11T11:36:38.282Z,3.10
2023-02-11T11:39:25.183Z,2.00
2023-02-11T11:42:05.546Z,0.70
2023-02-11T11:44:35.276Z,0.90
2023-02-11T11:47:11.650Z,1.40
2023-02-11T11:49:48.108Z,0.50
2023-02-11T11:52:41.867Z,0.20
2023-02-11T11:55:19.244Z,1.70
2023-02-11T11:57:48.606Z,2.40
2023-02-11T12:00:23.001Z,2.80
2023-02-11T12:03:17.719Z,0.70
2023-02-11T12:06:13.162Z,0.60
2023-02-11T12:08:49.555Z,0.80
2023-02-11T12:12:07.940Z,0.70
2023-02-11T12:14:50.422Z,0.70
2023-02-11T12:17:20.565Z,0.70
2023-02-11T12:20:18.219Z,0.70
2023-02-11T12:23:38.128Z,0.70
2023-02-11T12:26:17.562Z,0.70
2023-02-11T12:28:50.677Z,0.60
2023-02-11T12:31:47.315Z,0.80
2023-02-11T12:34:44.178Z,0.60
2023-02-11T12:37:24.822Z,0.90
2023-02-11T12:39:59.849Z,1.20
2023-02-11T12:43:14.398Z,0.90
2023-02-11T12:46:17.186Z,1.00
2023-02-11T12:49:02.441Z,0.80
2023-02-11T12:51:55.738Z,0.90
2023-02-11T12:54:23.031Z,0.80
2023-02-11T12:57:11.633Z,1.80
2023-02-11T12:59:50.175Z,0.70
2023-02-11T13:02:35.227Z,1.70
2023-02-11T13:05:25.430Z,0.80
2023-02-11T13:08:00.187Z,1.10
2023-02-11T13:10:37.253Z,0.70
2023-02-11T13:13:21.233Z,0.50
2023-02-11T13:15:56.130Z,3.20
2023-02-11T13:18:40.909Z,2.70
2023-02-11T13:21:36.673Z,0.50
2023-02-11T13:24:37.208Z,0.60
2023-02-11T13:27:25.385Z,0.70
2023-02-11T13:29:58.739Z,0.70
2023-02-11T13:32:26.048Z,0.60
2023-02-11T13:34:59.490Z,1.30
2023-02-11T13:37:38.851Z,1.00
2023-02-11T13:40:28.670Z,1.70
2023-02-11T13:42:59.238Z,2.20
2023-02-11T13:45:41.455Z,2.50
2023-02-11T13:48:25.674Z,0.00
2023-02-11T13:51:15.138Z,0.50
2023-02-11T13:53:58.432Z,0.30
2023-02-11T13:56:33.122Z,1.90
2023-02-11T13:59:07.616Z,0.50
2023-02-11T14:02:18.022Z,0.20
2023-02-11T14:05:45.138Z,0.30
2023-02-11T14:08:31.395Z,0.40
2023-02-11T14:10:59.941Z,0.30
2023-02-11T14:13:34.527Z,0.10
2023-02-11T14:16:05.120Z,0.30
2023-02-11T14:18:44.671Z,0.20
2023-02-11T14:21:13.482Z,0.10
2023-02-11T14:23:41.956Z,-0.30
2023-02-11T14:26:21.800Z,0.00
2023-02-11T14:29:27.892Z,0.10
2023-02-11T14:32:07.278Z,-0.10
2023-02-11T14:35:05.175Z,-0.10
2023-02-11T14:37:50.685Z,0.00
2023-02-11T14:40:18.804Z,0.30
2023-02-11T14:42:46.259Z,0.10
2023-02-11T14:45:21.440Z,-0.30
2023-02-11T14:47:58.557Z,2.10
2023-02-11T14:50:43.231Z,2.10
2023-02-11T14:53:19.747Z,-0.20
2023-02-11T14:55:54.952Z,-0.30
2023-02-11T14:58:25.780Z,-0.50
2023-02-11T15:01:09.333Z,-0.70
2023-02-11T15:03:38.203Z,-0.40
2023-02-11T15:06:18.530Z,-0.70
2023-02-11T15:08:49.922Z,-0.50
2023-02-11T15:11:20.315Z,1.80
2023-02-11T15:13:50.063Z,-1.00
2023-02-11T15:16:21.783Z,1.30
2023-02-11T15:18:53.097Z,1.10
2023-02-11T15:21:34.706Z,-0.20
2023-02-11T15:24:03.805Z,0.10
2023-02-11T15:26:31.574Z,0.30
2023-02-11T15:28:59.405Z,0.20
2023-02-11T15:31:28.135Z,-1.00
2023-02-11T15:33:55.916Z,2.00
2023-02-11T15:36:28.737Z,-0.90
2023-02-11T15:39:18.122Z,-0.80
2023-02-11T15:41:45.840Z,-0.70
2023-02-11T15:44:33.091Z,0.40
2023-02-11T15:47:00.783Z,-0.90
2023-02-11T15:49:28.305Z,-0.80
2023-02-11T15:51:57.848Z,-0.40
2023-02-11T15:54:29.621Z,-1.20
2023-02-11T15:57:04.077Z,-1.50
2023-02-11T15:59:48.455Z,0.00
2023-02-11T16:02:32.104Z,-1.00
2023-02-11T16:05:09.183Z,-1.00
2023-02-11T16:07:50.438Z,-1.00
2023-02-11T16:10:23.653Z,-0.50
2023-02-11T16:12:53.567Z,1.50
2023-02-11T16:15:44.764Z,-1.50
2023-02-11T16:18:38.578Z,-1.30
2023-02-11T16:21:14.757Z,-1.10
2023-02-11T16:23:43.209Z,-1.50
2023-02-11T16:26:21.208Z,0.90
2023-02-11T16:28:49.196Z,1.00
2023-02-11T16:31:18.606Z,-1.60
2023-02-11T16:33:46.155Z,-0.40
2023-02-11T16:36:17.314Z,-1.70
2023-02-11T16:38:44.779Z,-1.50
2023-02-11T16:41:12.867Z,-1.20
2023-02-11T16:43:40.700Z,-1.40
2023-02-11T16:46:09.463Z,-1.70
2023-02-11T16:48:38.200Z,-1.70
2023-02-11T16:51:08.261Z,-0.10
2023-02-11T16:53:35.872Z,-1.30
2023-02-11T16:56:03.663Z,-1.80
2023-02-11T16:58:31.065Z,0.70
2023-02-11T17:00:58.558Z,-1.90
2023-02-11T17:03:29.948Z,-1.50
2023-02-11T17:05:57.604Z,-1.80
2023-02-11T17:08:25.330Z,-1.80
2023-02-11T17:10:53.115Z,-1.90
2023-02-11T17:13:20.645Z,-0.30
2023-02-11T17:15:48.149Z,-1.90
2023-02-11T17:18:15.560Z,0.70
2023-02-11T17:20:42.893Z,-1.90
2023-02-11T17:23:11.297Z,-1.70
2023-02-11T17:25:39.215Z,-1.40
2023-02-11T17:28:08.554Z,-1.60
2023-02-11T17:30:36.048Z,-1.80
2023-02-11T17:33:03.539Z,-1.70
2023-02-11T17:35:30.895Z,0.50
2023-02-11T17:37:59.281Z,-0.90
2023-02-11T17:40:26.698Z,-1.90
2023-02-11T17:42:54.116Z,-1.60
2023-02-11T17:45:22.454Z,-1.80
2023-02-11T17:47:50.082Z,-1.80
2023-02-11T17:50:17.728Z,0.10
2023-02-11T17:52:46.798Z,-1.90
2023-02-11T17:55:14.323Z,-2.00
2023-02-11T17:57:42.084Z,-2.30
2023-02-11T18:00:10.253Z,-2.20
2023-02-11T18:02:37.700Z,-1.90
2023-02-11T18:05:05.514Z,-2.20
2023-02-11T18:07:33.327Z,-1.90
2023-02-11T18:10:00.820Z,-0.80
2023-02-11T18:12:28.189Z,-2.10
2023-02-11T18:14:57.988Z,-1.90
2023-02-11T18:17:26.041Z,-2.20
2023-02-11T18:19:56.383Z,-2.40
2023-02-11T18:22:24.702Z,-2.60
2023-02-11T18:24:53.560Z,-2.00
2023-02-11T18:27:22.261Z,-2.50
2023-02-11T18:29:49.680Z,-2.60
2023-02-11T18:32:18.183Z,-0.80
2023-02-11T18:34:45.910Z,-2.10
2023-02-11T18:37:14.466Z,-2.10
2023-02-11T18:39:42.404Z,-1.00
2023-02-11T18:42:10.181Z,-2.40
2023-02-11T18:44:37.806Z,-2.00
2023-02-11T18:47:05.521Z,-1.80
2023-02-11T18:49:33.400Z,-2.10
2023-02-11T18:52:00.716Z,-2.20
2023-02-11T18:54:28.436Z,-2.20
2023-02-11T18:56:55.772Z,-2.10
2023-02-11T18:59:23.287Z,-2.10
2023-02-11T19:01:51.862Z,-2.30
2023-02-11T19:04:20.280Z,-2.40
2023-02-11T19:06:52.376Z,-2.30
2023-02-11T19:09:21.015Z,-2.30
2023-02-11T19:11:51.280Z,-2.30
2023-02-11T19:14:26.778Z,-2.60
2023-02-11T19:16:56.767Z,-2.30
2023-02-11T19:19:28.663Z,-2.50
2023-02-11T19:21:57.923Z,-2.60
2023-02-11T19:24:28.097Z,-2.60
2023-02-11T19:27:01.914Z,-2.50
2023-02-11T19:29:32.250Z,-2.70
2023-02-11T19:31:59.707Z,-2.60
2023-02-11T19:34:27.217Z,0.10
2023-02-11T19:36:55.017Z,-2.40
2023-02-11T19:39:24.832Z,-2.80
2023-02-11T19:41:52.911Z,-2.70
2023-02-11T19:44:21.723Z,-2.70
2023-02-11T19:46:50.603Z,-2.90
2023-02-11T19:49:23.268Z,-2.90
2023-02-11T19:51:51.506Z,-0.80
2023-02-11T19:54:20.372Z,-3.10
2023-02-11T19:56:48.908Z,-3.10
2023-02-11T19:59:16.649Z,-3.20
2023-02-11T20:01:47.644Z,-3.30
2023-02-11T20:04:17.275Z,-2.80
2023-02-11T20:06:48.120Z,-3.00
2023-02-11T20:09:15.664Z,-1.10
2023-02-11T20:11:43.405Z,-3.00
2023-02-11T20:14:13.249Z,-3.10
2023-02-11T20:16:48.755Z,-3.10
2023-02-11T20:19:19.204Z,-3.20
2023-02-11T20:21:48.481Z,-3.20
2023-02-11T20:24:18.009Z,-3.10
2023-02-11T20:26:48.615Z,-3.40
2023-02-11T20:29:18.030Z,-3.20
2023-02-11T20:31:45.794Z,-3.40
2023-02-11T20:34:13.628Z,-2.60
2023-02-11T20:36:41.066Z,-3.00
2023-02-11T20:39:08.846Z,-3.00
2023-02-11T20:41:39.915Z,-3.40
2023-02-11T20:44:10.244Z,-2.90
2023-02-11T20:46:40.591Z,-3.10
2023-02-11T20:49:08.859Z,-3.10
2023-02-11T20:51:37.491Z,-3.10
2023-02-11T20:54:06.724Z,-3.40
2023-02-11T20:56:36.914Z,-2.50
2023-02-11T20:59:06.091Z,-0.90
2023-02-11T21:01:37.872Z,-3.50
2023-02-11T21:04:08.119Z,-3.00
2023-02-11T21:06:40.284Z,-1.60
2023-02-11T21:09:09.631Z,-0.30
2023-02-11T21:11:37.200Z,-0.70
2023-02-11T21:14:05.187Z,-3.60
2023-02-11T21:16:33.004Z,-3.80
2023-02-11T21:19:03.661Z,-3.50
2023-02-11T21:21:31.482Z,-1.30
2023-02-11T21:23:58.945Z,-3.30
2023-02-11T21:26:26.838Z,-3.70
2023-02-11T21:28:55.243Z,-3.90
2023-02-11T21:31:25.417Z,-3.60
2023-02-11T21:33:55.177Z,-3.90
2023-02-11T21:36:24.233Z,-3.60
2023-02-11T21:38:52.388Z,-3.30
2023-02-11T21:41:22.625Z,-3.60
2023-02-11T21:43:51.728Z,-3.70
2023-02-11T21:46:20.641Z,-3.70
2023-02-11T21:48:48.871Z,-3.80
2023-02-11T21:51:22.045Z,-3.80
2023-02-11T21:53:57.163Z,-3.80
2023-02-11T21:56:28.186Z,-4.00
2023-02-11T21:58:57.964Z,-3.70
2023-02-11T22:01:29.132Z,-3.80
2023-02-11T22:03:57.158Z,-3.20
2023-02-11T22:06:28.135Z,-3.60
2023-02-11T22:08:55.704Z,-3.60
2023-02-11T22:11:23.712Z,-3.40
2023-02-11T22:13:55.750Z,-2.90
2023-02-11T22:16:23.946Z,-3.90
2023-02-11T22:18:51.870Z,-3.60
2023-02-11T22:21:22.326Z,-3.70
2023-02-11T22:23:50.340Z,-3.70
2023-02-11T22:26:20.803Z,-3.30
2023-02-11T22:28:49.610Z,-3.60
2023-02-11T22:31:23.309Z,-3.70
2023-02-11T22:33:50.941Z,-3.50
2023-02-11T22:36:32.545Z,-3.50
2023-02-11T22:39:02.647Z,-3.80
2023-02-11T22:41:30.290Z,-3.70
2023-02-11T22:43:57.844Z,-3.90
2023-02-11T22:46:25.919Z,-3.90
2023-02-11T22:48:53.440Z,-5.20
2023-02-11T22:51:26.657Z,-3.70
2023-02-11T22:53:56.623Z,-3.90
2023-02-11T22:56:25.116Z,-3.90
2023-02-11T22:58:53.879Z,-3.80
2023-02-11T23:01:21.353Z,-3.80
2023-02-11T23:03:48.914Z,-4.00
2023-02-11T23:06:16.910Z,-3.80
2023-02-11T23:08:45.322Z,-3.60
2023-02-11T23:11:16.245Z,-0.60
2023-02-11T23:13:45.117Z,-4.10
2023-02-11T23:16:15.383Z,-1.90
2023-02-11T23:18:44.513Z,-3.00
2023-02-11T23:21:17.005Z,-4.10
2023-02-11T23:23:45.578Z,-4.10
2023-02-11T23:26:15.522Z,-4.00
2023-02-11T23:28:46.139Z,-4.10
2023-02-11T23:31:31.564Z,-4.00
2023-02-11T23:33:58.988Z,-3.70
2023-02-11T23:36:26.563Z,-3.70
2023-02-11T23:38:53.917Z,-3.50
2023-02-11T23:41:23.417Z,-2.90
2023-02-11T23:43:52.916Z,-3.90
2023-02-11T23:46:24.721Z,-4.00
2023-02-11T23:48:53.312Z,-4.00
2023-02-11T23:51:26.941Z,-3.80
2023-02-11T23:53:56.230Z,-4.00
2023-02-11T23:56:27.204Z,-3.70
2023-02-11T23:58:57.289Z,-3.80
